Anahola, HI

9:31 PM HST on August 31, 2014 (GMT -1000)
WAILUA HOMESTEADS | Change Station
CLOSE
Current Station
Personal Weather Station
Location: Kapaa, HI
Elevation: 361 ft
Nearby Weather Stations

Elev 361 ft 22.07 °N, 159.36 °W | Updated 39 seconds ago

Partly Cloudy
Partly Cloudy
73.2 °F
Feels Like 71 °F
N
0.0
Wind Variable Wind from ENE
Gusts 4.0 mph

Today
High -- | Low -- °F
--% Chance of Precip.
Yesterday
High -- | Low -- °F
Precip. -- in
6:20 AM 6:54 PM
Waxing Crescent, 38% visible
Pressure 30.03 in
Visibility 10.0 miles
Clouds Few 2300 ft
Heat Index 71 °F
Dew Point 70 °F
Humidity 89%
Rainfall 0.00 in
Snow Depth Not available.
UV 0.0 out of 12
Pollen Not available.
Air Quality Not available.
Flu Activity Not available.
METAR PHLI 010653Z 08007KT 10SM FEW023 26/21 A3004 RMK AO2 SLP169 T02610211 $

More Conditions Fewer Conditions

Pressure 30.03 in
Visibility 10.0 miles
Clouds Few 2300 ft
Heat Index 71 °F
Dew Point 70 °F
Humidity 89%
Rainfall 0.00 in
Snow Depth Not available.
UV 0.0 out of 12
Pollen Not available.
Air Quality Not available.
Flu Activity Not available.
METAR PHLI 010653Z 08007KT 10SM FEW023 26/21 A3004 RMK AO2 SLP169 T02610211 $

More Conditions Fewer Conditions

10-Day Weather Forecast

Almanac

Astronomy

Aug. 31, 2014 Rise Set
Actual Time 6:20 AM HST 6:54 PM HST
Civil Twilight 5:57 AM HST 7:17 PM HST
Nautical Twilight 5:30 AM HST 7:43 PM HST
Astronomical Twilight 5:03 AM HST 8:10 PM HST
Moon 11:33 AM HST (8/31) 11:03 PM HST (8/31)
Length of Visible Light 13h 20m
Length of Day
12h 34m
Tomorrow will be 1m 12s shorter.
Waxing Crescent, 38% of the Moon is Illuminated
Sep 1
Waxing Crescent
Sep 2
First Quarter
Sep 8
Full
Sep 15
Last Quarter
Sep 24
New

Yesterday's Extremes

State Highs State Lows

Community

WunderPhotos

Upload Photos

1,749,154 photos uploaded!

Nearby

Snow Depth

Station Depth Elevation
No new snow has been reported.

Earthquake Activity

City Distance Mag. Time & Date
No recent earthquake activity has been reported nearby.
Minimum magnitude displayed is 2.5.

Coastal Water Temperatures

Place Temperature
No Stations Reporting

Nearby Weather Stations